createdAt,value
2019-01-28T00:02:01.048Z,57.03
2019-01-28T00:04:31.612Z,57.13
2019-01-28T00:07:02.105Z,57.03
2019-01-28T00:09:32.605Z,56.10
2019-01-28T00:12:03.145Z,61.60
2019-01-28T00:14:33.615Z,61.30
2019-01-28T00:17:04.306Z,55.13
2019-01-28T00:19:34.770Z,59.33
2019-01-28T00:22:05.616Z,60.20
2019-01-28T00:24:36.105Z,57.17
2019-01-28T00:27:06.755Z,51.27
2019-01-28T00:29:37.281Z,53.17
2019-01-28T00:32:07.748Z,50.23
2019-01-28T00:34:38.205Z,52.37
2019-01-28T00:37:08.718Z,55.10
2019-01-28T00:39:39.211Z,47.70
2019-01-28T00:42:09.664Z,47.87
2019-01-28T00:44:40.169Z,47.23
2019-01-28T00:47:10.727Z,46.83
2019-01-28T00:49:41.230Z,49.87
2019-01-28T00:52:11.677Z,53.00
2019-01-28T00:54:42.182Z,50.57
2019-01-28T00:57:12.673Z,48.67
2019-01-28T00:59:43.188Z,49.50
2019-01-28T01:02:13.699Z,50.53
2019-01-28T01:04:44.308Z,47.40
2019-01-28T01:07:15.584Z,52.73
2019-01-28T01:09:46.054Z,47.50
2019-01-28T01:12:16.725Z,50.93
2019-01-28T01:14:47.179Z,47.50
2019-01-28T01:17:17.672Z,47.77
2019-01-28T01:19:48.168Z,46.23
2019-01-28T01:22:18.626Z,45.97
2019-01-28T01:24:49.115Z,45.73
2019-01-28T01:27:19.578Z,42.37
2019-01-28T01:29:50.068Z,47.37
2019-01-28T01:32:20.524Z,47.40
2019-01-28T01:34:50.981Z,46.23
2019-01-28T01:37:21.467Z,47.40
2019-01-28T01:39:51.921Z,48.57
2019-01-28T01:42:22.421Z,48.13
2019-01-28T01:44:52.865Z,51.33
2019-01-28T01:47:23.372Z,48.20
2019-01-28T01:49:53.824Z,51.43
2019-01-28T01:52:24.329Z,48.50
2019-01-28T01:54:54.820Z,43.50
2019-01-28T01:57:25.268Z,47.47
2019-01-28T01:59:55.753Z,43.00
2019-01-28T02:02:33.181Z,41.10
2019-01-28T02:04:58.415Z,41.70
2019-01-28T02:07:28.877Z,44.30
2019-01-28T02:09:59.368Z,40.97
2019-01-28T02:12:29.831Z,36.77
2019-01-28T02:15:00.336Z,41.90
2019-01-28T02:17:30.792Z,38.93
2019-01-28T02:20:01.292Z,34.43
2019-01-28T02:22:31.793Z,35.03
2019-01-28T02:25:02.241Z,33.67
2019-01-28T02:27:32.740Z,36.47
2019-01-28T02:30:03.329Z,32.67
2019-01-28T02:32:33.792Z,31.17
2019-01-28T02:35:04.430Z,31.57
2019-01-28T02:37:34.911Z,31.10
2019-01-28T02:40:08.205Z,29.57
2019-01-28T02:42:38.664Z,31.80
2019-01-28T02:45:10.294Z,35.40
2019-01-28T02:47:40.747Z,32.87
2019-01-28T02:50:13.856Z,31.07
2019-01-28T02:52:44.360Z,31.07
2019-01-28T02:55:16.607Z,33.83
2019-01-28T02:57:47.627Z,33.23
2019-01-28T03:00:20.383Z,33.07
2019-01-28T03:02:50.993Z,32.77
2019-01-28T03:05:21.830Z,29.60
2019-01-28T03:07:52.422Z,31.40
2019-01-28T03:10:23.899Z,34.03
2019-01-28T03:12:54.393Z,28.27
2019-01-28T03:15:25.013Z,28.43
2019-01-28T03:17:55.513Z,31.50
2019-01-28T03:20:25.997Z,29.10
2019-01-28T03:22:56.480Z,30.87
2019-01-28T03:25:27.046Z,34.90
2019-01-28T03:27:57.507Z,28.40
2019-01-28T03:30:27.998Z,29.07
2019-01-28T03:32:58.490Z,27.87
2019-01-28T03:35:28.989Z,29.80
2019-01-28T03:37:59.490Z,29.53
2019-01-28T03:40:30.096Z,31.53
2019-01-28T03:43:00.544Z,30.27
2019-01-28T03:45:31.144Z,28.97
2019-01-28T03:48:01.649Z,29.20
2019-01-28T03:50:32.253Z,29.90
2019-01-28T03:53:02.845Z,29.07
2019-01-28T03:55:33.295Z,28.00
2019-01-28T03:58:03.986Z,29.20
2019-01-28T04:00:34.573Z,25.70
2019-01-28T04:03:05.382Z,31.70
2019-01-28T04:05:35.947Z,26.97
2019-01-28T04:08:06.419Z,30.07
2019-01-28T04:10:36.931Z,30.53
2019-01-28T04:13:07.389Z,31.73
2019-01-28T04:15:38.000Z,29.07
2019-01-28T04:18:08.567Z,29.13
2019-01-28T04:20:39.067Z,28.97
2019-01-28T04:23:09.525Z,31.50
2019-01-28T04:25:40.076Z,31.10
2019-01-28T04:28:10.550Z,31.50
2019-01-28T04:30:41.050Z,30.37
2019-01-28T04:33:11.530Z,30.03
2019-01-28T04:35:42.039Z,33.07
2019-01-28T04:38:12.554Z,37.10
2019-01-28T04:40:42.999Z,33.67
2019-01-28T04:43:13.456Z,38.23
2019-01-28T04:45:43.974Z,34.73
2019-01-28T04:48:14.437Z,39.80
2019-01-28T04:50:44.895Z,38.03
2019-01-28T04:53:15.375Z,37.50
2019-01-28T04:55:45.875Z,36.73
2019-01-28T04:58:16.341Z,36.80
2019-01-28T05:00:46.836Z,34.60
2019-01-28T05:03:17.306Z,36.53
2019-01-28T05:05:48.308Z,38.30
2019-01-28T05:08:18.730Z,36.63
2019-01-28T05:10:49.222Z,38.20
2019-01-28T05:13:19.733Z,44.63
2019-01-28T05:15:50.193Z,55.67
2019-01-28T05:18:20.684Z,55.10
2019-01-28T05:20:51.136Z,53.60
2019-01-28T05:23:21.646Z,64.50
2019-01-28T05:25:52.129Z,55.50
2019-01-28T05:28:22.623Z,60.53
2019-01-28T05:30:53.117Z,48.03
2019-01-28T05:33:23.620Z,51.80
2019-01-28T05:35:54.121Z,49.67
2019-01-28T05:38:24.629Z,47.60
2019-01-28T05:40:55.099Z,46.17
2019-01-28T05:43:25.591Z,48.47
2019-01-28T05:45:56.086Z,50.00
2019-01-28T05:48:26.586Z,51.67
2019-01-28T05:50:57.033Z,54.80
2019-01-28T05:53:27.506Z,54.87
2019-01-28T05:55:57.987Z,61.43
2019-01-28T05:58:28.501Z,85.73
2019-01-28T06:00:59.016Z,67.93
2019-01-28T06:03:29.528Z,65.10
2019-01-28T06:06:00.051Z,67.80
2019-01-28T06:08:30.520Z,58.00
2019-01-28T06:11:00.991Z,61.40
2019-01-28T06:13:31.485Z,59.83
2019-01-28T06:16:01.944Z,53.57
2019-01-28T06:18:32.401Z,63.77
2019-01-28T06:21:04.626Z,67.80
2019-01-28T06:23:35.141Z,67.13
2019-01-28T06:26:05.953Z,65.23
2019-01-28T06:28:36.521Z,60.90
2019-01-28T06:31:07.109Z,55.90
2019-01-28T06:33:37.617Z,56.37
2019-01-28T06:36:08.141Z,54.43
2019-01-28T06:38:38.628Z,55.83
2019-01-28T06:41:09.190Z,51.03
2019-01-28T06:43:39.700Z,44.20
2019-01-28T06:46:10.181Z,40.90
2019-01-28T06:48:40.658Z,36.30
2019-01-28T06:51:11.204Z,37.97
2019-01-28T06:53:41.676Z,39.03
2019-01-28T06:56:12.138Z,36.17
2019-01-28T06:58:42.628Z,36.77
2019-01-28T07:01:13.361Z,32.30
2019-01-28T07:03:43.860Z,36.93
2019-01-28T07:06:14.345Z,40.80
2019-01-28T07:08:44.885Z,43.63
2019-01-28T07:11:15.399Z,42.20
2019-01-28T07:13:45.957Z,41.03
2019-01-28T07:16:16.475Z,35.40
2019-01-28T07:18:46.957Z,35.47
2019-01-28T07:21:17.454Z,39.90
2019-01-28T07:23:47.966Z,38.67
2019-01-28T07:26:18.424Z,35.53
2019-01-28T07:28:49.541Z,48.30
2019-01-28T07:31:19.995Z,39.67
2019-01-28T07:33:50.476Z,38.93
2019-01-28T07:36:20.984Z,35.97
2019-01-28T07:38:51.461Z,35.43
2019-01-28T07:41:21.990Z,35.30
2019-01-28T07:43:52.605Z,34.50
2019-01-28T07:46:23.068Z,33.40
2019-01-28T07:48:56.609Z,29.90
2019-01-28T07:51:27.115Z,33.67
2019-01-28T07:53:57.621Z,32.47
2019-01-28T07:56:28.099Z,37.23
2019-01-28T07:58:58.621Z,35.67
2019-01-28T08:01:29.159Z,33.33
2019-01-28T08:03:59.668Z,40.30
2019-01-28T08:06:30.338Z,41.00
2019-01-28T08:09:00.860Z,39.53
2019-01-28T08:11:31.317Z,44.57
2019-01-28T08:14:01.926Z,42.60
2019-01-28T08:16:32.401Z,40.63
2019-01-28T08:19:02.889Z,44.93
2019-01-28T08:21:33.406Z,45.50
2019-01-28T08:24:03.883Z,46.97
2019-01-28T08:26:34.397Z,53.83
2019-01-28T08:29:05.347Z,50.53
2019-01-28T08:31:35.867Z,49.33
2019-01-28T08:34:07.053Z,50.37
2019-01-28T08:36:37.550Z,45.70
2019-01-28T08:39:10.046Z,44.07
2019-01-28T08:41:40.604Z,44.43
2019-01-28T08:44:11.040Z,43.10
2019-01-28T08:46:41.642Z,47.53
2019-01-28T08:49:12.110Z,47.37
2019-01-28T08:51:42.687Z,43.33
2019-01-28T08:54:13.208Z,45.80
2019-01-28T08:56:43.884Z,46.17
2019-01-28T08:59:14.376Z,42.83
2019-01-28T09:01:44.884Z,45.87
2019-01-28T09:04:15.453Z,42.33
2019-01-28T09:06:45.969Z,45.20
2019-01-28T09:09:16.541Z,40.17
2019-01-28T09:11:47.228Z,41.93
2019-01-28T09:14:17.847Z,42.67
2019-01-28T09:16:48.336Z,41.17
2019-01-28T09:19:19.079Z,39.80
2019-01-28T09:21:49.557Z,41.00
2019-01-28T09:24:20.065Z,47.83
2019-01-28T09:26:50.521Z,46.10
2019-01-28T09:29:21.044Z,44.93
2019-01-28T09:31:51.576Z,43.70
2019-01-28T09:34:22.138Z,40.67
2019-01-28T09:36:52.641Z,39.30
2019-01-28T09:39:23.376Z,42.53
2019-01-28T09:41:53.935Z,44.07
2019-01-28T09:44:25.566Z,41.57
2019-01-28T09:46:56.202Z,41.37
2019-01-28T09:49:26.719Z,40.33
2019-01-28T09:51:57.388Z,42.77
2019-01-28T09:54:28.022Z,40.33
2019-01-28T09:56:59.308Z,43.00
2019-01-28T09:59:29.898Z,37.43
2019-01-28T10:02:00.432Z,38.37
2019-01-28T10:04:30.905Z,40.97
2019-01-28T10:07:01.433Z,43.67
2019-01-28T10:09:31.873Z,44.60
2019-01-28T10:12:02.612Z,44.50
2019-01-28T10:14:33.077Z,44.03
2019-01-28T10:17:03.552Z,45.77
2019-01-28T10:19:34.024Z,45.97
2019-01-28T10:22:04.760Z,52.53
2019-01-28T10:24:35.291Z,52.00
2019-01-28T10:27:05.981Z,51.00
2019-01-28T10:29:36.508Z,47.20
2019-01-28T10:32:07.113Z,46.97
2019-01-28T10:34:37.620Z,51.83
2019-01-28T10:37:08.174Z,51.67
2019-01-28T10:39:40.722Z,50.93
2019-01-28T10:42:12.339Z,52.77
2019-01-28T10:44:42.825Z,52.57
2019-01-28T10:47:13.443Z,49.83
2019-01-28T10:49:43.916Z,52.50
2019-01-28T10:52:14.437Z,57.57
2019-01-28T10:54:47.630Z,58.93
2019-01-28T10:57:18.467Z,65.93
2019-01-28T10:59:48.990Z,59.00
2019-01-28T11:02:19.661Z,62.17
2019-01-28T11:04:50.162Z,53.03
2019-01-28T11:07:21.378Z,56.87
2019-01-28T11:09:51.912Z,61.97
2019-01-28T11:12:22.557Z,57.67
2019-01-28T11:14:53.074Z,56.93
2019-01-28T11:17:24.717Z,60.30
2019-01-28T11:19:55.209Z,60.43
2019-01-28T11:22:26.070Z,62.73
2019-01-28T11:24:56.692Z,56.47
2019-01-28T11:27:27.617Z,60.57
2019-01-28T11:29:58.638Z,54.83
2019-01-28T11:32:29.176Z,57.50
2019-01-28T11:35:00.101Z,52.43
2019-01-28T11:37:30.659Z,57.90
2019-01-28T11:40:01.150Z,58.10
2019-01-28T11:42:31.636Z,58.27
2019-01-28T11:45:02.111Z,61.53
2019-01-28T11:47:32.737Z,68.47
2019-01-28T11:50:03.178Z,58.03
2019-01-28T11:52:33.635Z,57.37
2019-01-28T11:55:04.542Z,62.07
2019-01-28T11:57:35.533Z,60.67
2019-01-28T12:00:10.371Z,63.20
2019-01-28T12:02:40.928Z,60.07
2019-01-28T12:05:11.656Z,61.90
2019-01-28T12:07:42.215Z,63.87
2019-01-28T12:10:13.077Z,72.07
2019-01-28T12:12:44.591Z,58.90
2019-01-28T12:15:15.917Z,60.77
2019-01-28T12:17:46.486Z,64.70
2019-01-28T12:20:17.349Z,61.73
2019-01-28T12:22:47.912Z,59.07
2019-01-28T12:25:18.892Z,59.17
2019-01-28T12:27:49.593Z,65.23
2019-01-28T12:30:23.089Z,61.43
2019-01-28T12:32:53.697Z,60.03
2019-01-28T12:35:24.374Z,66.23
2019-01-28T12:37:54.982Z,63.60
2019-01-28T12:40:26.182Z,60.27
2019-01-28T12:42:56.784Z,60.43
2019-01-28T12:45:27.552Z,61.10
2019-01-28T12:47:58.213Z,63.43
2019-01-28T12:50:29.066Z,61.10
2019-01-28T12:52:59.592Z,67.73
2019-01-28T12:55:30.443Z,57.00
2019-01-28T12:58:01.065Z,63.77
2019-01-28T13:00:39.136Z,67.87
2019-01-28T13:03:10.766Z,58.33
2019-01-28T13:05:41.423Z,59.60
2019-01-28T13:08:11.894Z,65.80
2019-01-28T13:10:42.619Z,63.93
2019-01-28T13:13:13.081Z,77.27
2019-01-28T13:15:43.751Z,64.30
2019-01-28T13:18:14.228Z,67.83
2019-01-28T13:20:44.803Z,63.90
2019-01-28T13:23:15.301Z,58.47
2019-01-28T13:25:46.140Z,62.43
2019-01-28T13:28:18.320Z,61.67
2019-01-28T13:30:48.789Z,61.97
2019-01-28T13:33:19.467Z,68.40
2019-01-28T13:35:49.935Z,63.13
2019-01-28T13:38:20.624Z,61.03
2019-01-28T13:40:51.135Z,61.43
2019-01-28T13:43:21.606Z,58.57
2019-01-28T13:45:52.135Z,62.53
2019-01-28T13:48:22.695Z,67.93
2019-01-28T13:50:53.349Z,62.67
2019-01-28T13:53:24.023Z,64.37
2019-01-28T13:55:54.498Z,65.00
2019-01-28T13:58:25.112Z,68.20
2019-01-28T14:00:55.877Z,62.67
2019-01-28T14:03:26.528Z,60.40
2019-01-28T14:05:57.125Z,61.57
2019-01-28T14:08:27.612Z,60.93
2019-01-28T14:10:58.248Z,58.93
2019-01-28T14:13:28.877Z,59.10
2019-01-28T14:15:59.470Z,56.63
2019-01-28T14:18:29.990Z,58.90
2019-01-28T14:21:03.027Z,59.20
2019-01-28T14:23:33.504Z,57.93
2019-01-28T14:26:04.012Z,64.17
2019-01-28T14:28:34.601Z,64.13
2019-01-28T14:31:05.224Z,55.40
2019-01-28T14:33:35.767Z,65.17
2019-01-28T14:36:06.630Z,58.53
2019-01-28T14:38:37.167Z,60.40
2019-01-28T14:41:08.891Z,58.17
2019-01-28T14:43:39.447Z,60.73
2019-01-28T14:46:10.086Z,64.23
2019-01-28T14:48:40.591Z,65.23
2019-01-28T14:51:11.175Z,65.13
2019-01-28T14:53:41.680Z,57.33
2019-01-28T14:56:12.199Z,60.00
2019-01-28T14:58:42.663Z,65.03
2019-01-28T15:01:13.169Z,60.23
2019-01-28T15:03:43.657Z,60.23
2019-01-28T15:06:14.161Z,55.40
2019-01-28T15:08:44.670Z,61.07
2019-01-28T15:11:15.345Z,61.53
2019-01-28T15:13:45.812Z,63.13
2019-01-28T15:16:16.292Z,57.77
2019-01-28T15:18:46.829Z,58.37
2019-01-28T15:21:17.349Z,56.60
2019-01-28T15:23:47.939Z,62.80
2019-01-28T15:26:18.489Z,62.13
2019-01-28T15:28:49.023Z,60.30
2019-01-28T15:31:19.529Z,61.07
2019-01-28T15:33:50.335Z,59.90
2019-01-28T15:36:20.789Z,54.63
2019-01-28T15:38:51.344Z,59.80
2019-01-28T15:41:21.805Z,55.73
2019-01-28T15:43:52.312Z,57.47
2019-01-28T15:46:24.610Z,57.43
2019-01-28T15:48:55.290Z,59.07
2019-01-28T15:51:25.732Z,56.70
2019-01-28T15:53:56.238Z,60.50
2019-01-28T15:56:26.793Z,63.20
2019-01-28T15:58:57.265Z,68.53
2019-01-28T16:01:27.880Z,82.03
2019-01-28T16:03:58.382Z,121.57
2019-01-28T16:06:28.876Z,82.37
2019-01-28T16:08:59.370Z,72.97
2019-01-28T16:11:29.834Z,72.97
2019-01-28T16:14:00.329Z,77.50
2019-01-28T16:16:30.794Z,63.53
2019-01-28T16:19:01.266Z,64.80
2019-01-28T16:21:31.765Z,64.03
2019-01-28T16:24:02.424Z,69.33
2019-01-28T16:26:32.897Z,62.80
2019-01-28T16:29:03.396Z,66.97
2019-01-28T16:31:33.896Z,65.73
2019-01-28T16:34:04.655Z,66.67
2019-01-28T16:36:35.249Z,69.03
2019-01-28T16:39:08.688Z,70.20
2019-01-28T16:41:39.386Z,71.90
2019-01-28T16:44:10.153Z,69.13
2019-01-28T16:46:40.648Z,63.73
2019-01-28T16:49:11.111Z,62.23
2019-01-28T16:51:41.622Z,70.53
2019-01-28T16:54:12.078Z,67.03
2019-01-28T16:56:42.604Z,59.97
2019-01-28T16:59:13.060Z,71.83
2019-01-28T17:01:43.549Z,63.60
2019-01-28T17:04:14.148Z,61.07
2019-01-28T17:06:44.611Z,61.20
2019-01-28T17:09:15.569Z,64.97
2019-01-28T17:11:46.059Z,58.23
2019-01-28T17:14:16.544Z,64.20
2019-01-28T17:16:47.054Z,67.57
2019-01-28T17:19:17.512Z,62.87
2019-01-28T17:21:48.002Z,68.57
2019-01-28T17:24:18.470Z,62.80
2019-01-28T17:26:49.059Z,62.13
2019-01-28T17:29:19.528Z,63.60
2019-01-28T17:31:50.102Z,70.73
2019-01-28T17:34:20.592Z,64.60
2019-01-28T17:36:51.188Z,62.67
2019-01-28T17:39:21.934Z,69.13
2019-01-28T17:41:52.393Z,66.57
2019-01-28T17:44:22.938Z,67.83
2019-01-28T17:46:53.435Z,68.50
2019-01-28T17:49:23.912Z,57.13
2019-01-28T17:51:54.522Z,66.03
2019-01-28T17:54:24.974Z,62.37
2019-01-28T17:56:55.434Z,61.00
2019-01-28T17:59:25.928Z,58.93
2019-01-28T18:01:56.421Z,59.80
2019-01-28T18:04:26.880Z,59.80
2019-01-28T18:06:57.439Z,65.43
2019-01-28T18:09:27.901Z,81.00
2019-01-28T18:11:58.360Z,96.70
2019-01-28T18:14:28.870Z,93.50
2019-01-28T18:16:59.327Z,88.17
2019-01-28T18:19:29.792Z,97.03
2019-01-28T18:22:00.289Z,85.90
2019-01-28T18:24:30.844Z,86.00
2019-01-28T18:27:01.315Z,88.50
2019-01-28T18:29:31.826Z,85.57
2019-01-28T18:32:02.276Z,78.70
2019-01-28T18:34:32.735Z,76.00
2019-01-28T18:37:03.229Z,79.43
2019-01-28T18:39:33.785Z,75.17
2019-01-28T18:42:04.280Z,74.27
2019-01-28T18:44:34.752Z,70.30
2019-01-28T18:47:05.272Z,70.00
2019-01-28T18:49:35.739Z,66.77
2019-01-28T18:52:06.349Z,73.53
2019-01-28T18:54:36.800Z,70.77
2019-01-28T18:57:07.282Z,75.93
2019-01-28T18:59:37.755Z,74.10
2019-01-28T19:02:08.343Z,73.87
2019-01-28T19:04:38.853Z,72.50
2019-01-28T19:07:26.688Z,74.80
2019-01-28T19:10:15.990Z,78.70
2019-01-28T19:12:55.086Z,75.13
2019-01-28T19:15:50.520Z,71.70
2019-01-28T19:18:39.920Z,75.47
2019-01-28T19:21:14.865Z,76.00
2019-01-28T19:23:45.368Z,72.87
2019-01-28T19:26:15.840Z,76.33
2019-01-28T19:28:46.347Z,71.00
2019-01-28T19:31:16.799Z,73.23
2019-01-28T19:33:47.300Z,72.20
2019-01-28T19:36:17.757Z,73.33
2019-01-28T19:38:48.289Z,74.33
2019-01-28T19:41:18.739Z,74.13
2019-01-28T19:43:49.196Z,76.27
2019-01-28T19:46:19.786Z,73.23
2019-01-28T19:48:50.233Z,76.97
2019-01-28T19:51:20.725Z,77.57
2019-01-28T19:53:51.234Z,76.57
2019-01-28T19:56:21.695Z,82.77
2019-01-28T19:58:53.326Z,76.73
2019-01-28T20:01:23.734Z,71.17
2019-01-28T20:03:54.200Z,76.03
2019-01-28T20:06:24.707Z,116.00
2019-01-28T20:08:57.932Z,94.53
2019-01-28T20:11:28.417Z,90.53
2019-01-28T20:13:58.939Z,88.67
2019-01-28T20:16:29.418Z,86.90
2019-01-28T20:18:59.884Z,86.90
2019-01-28T20:21:30.387Z,82.60
2019-01-28T20:24:00.840Z,86.93
2019-01-28T20:26:31.418Z,91.30
2019-01-28T20:29:01.918Z,77.23
2019-01-28T20:31:32.386Z,82.20
2019-01-28T20:34:03.089Z,86.30
2019-01-28T20:36:33.556Z,87.77
2019-01-28T20:39:05.879Z,85.77
2019-01-28T20:41:36.368Z,84.37
2019-01-28T20:44:07.037Z,86.33
2019-01-28T20:46:37.542Z,78.60
2019-01-28T20:49:08.001Z,84.17
2019-01-28T20:51:38.564Z,80.17
2019-01-28T20:54:09.007Z,88.30
2019-01-28T20:56:39.506Z,83.83
2019-01-28T20:59:09.985Z,85.80
2019-01-28T21:01:40.579Z,95.87
2019-01-28T21:04:11.303Z,95.77
2019-01-28T21:06:41.708Z,84.93
2019-01-28T21:09:12.395Z,88.03
2019-01-28T21:11:42.858Z,85.93
2019-01-28T21:14:13.312Z,86.97
2019-01-28T21:16:43.817Z,83.07
2019-01-28T21:19:14.273Z,86.60
2019-01-28T21:21:44.748Z,89.87
2019-01-28T21:24:15.251Z,88.23
2019-01-28T21:26:46.053Z,90.97
2019-01-28T21:29:16.624Z,90.13
2019-01-28T21:31:47.086Z,86.87
2019-01-28T21:34:17.551Z,90.87
2019-01-28T21:37:12.957Z,98.07
2019-01-28T21:39:43.439Z,103.10
2019-01-28T21:42:14.033Z,98.20
2019-01-28T21:44:44.485Z,91.10
2019-01-28T21:47:14.986Z,91.60
2019-01-28T21:49:45.445Z,88.97
2019-01-28T21:52:16.012Z,87.73
2019-01-28T21:54:46.465Z,89.33
2019-01-28T21:57:16.962Z,90.17
2019-01-28T21:59:47.429Z,93.10
2019-01-28T22:02:17.920Z,93.80
2019-01-28T22:04:48.450Z,87.77
2019-01-28T22:07:18.956Z,93.43
2019-01-28T22:09:49.417Z,93.83
2019-01-28T22:12:19.914Z,106.00
2019-01-28T22:14:50.373Z,88.17
2019-01-28T22:17:20.876Z,97.93
2019-01-28T22:19:51.332Z,97.50
2019-01-28T22:22:21.824Z,96.73
2019-01-28T22:24:52.314Z,107.43
2019-01-28T22:27:22.821Z,110.93
2019-01-28T22:29:53.276Z,106.13
2019-01-28T22:32:23.777Z,101.33
2019-01-28T22:34:54.289Z,92.03
2019-01-28T22:37:24.752Z,100.30
2019-01-28T22:39:55.284Z,96.27
2019-01-28T22:42:25.822Z,90.10
2019-01-28T22:44:56.312Z,91.27
2019-01-28T22:47:26.803Z,90.37
2019-01-28T22:49:57.328Z,98.30
2019-01-28T22:52:29.499Z,108.20
2019-01-28T22:55:00.252Z,100.37
2019-01-28T22:57:30.659Z,97.43
2019-01-28T23:00:01.161Z,95.87
2019-01-28T23:02:31.659Z,101.53
2019-01-28T23:05:02.138Z,97.57
2019-01-28T23:07:32.642Z,103.63
2019-01-28T23:10:03.218Z,101.00
2019-01-28T23:12:33.723Z,98.07
2019-01-28T23:15:05.639Z,94.97
2019-01-28T23:17:36.140Z,95.53
2019-01-28T23:20:07.357Z,93.73
2019-01-28T23:22:37.858Z,93.77
2019-01-28T23:25:08.503Z,91.67
2019-01-28T23:27:38.992Z,91.17
2019-01-28T23:30:12.066Z,92.40
2019-01-28T23:32:42.666Z,93.27
2019-01-28T23:35:13.223Z,77.90
2019-01-28T23:37:43.719Z,82.83
2019-01-28T23:40:14.469Z,84.03
2019-01-28T23:42:47.329Z,89.90
2019-01-28T23:45:18.013Z,83.23
2019-01-28T23:47:48.468Z,87.50
2019-01-28T23:50:18.969Z,93.13
2019-01-28T23:52:49.424Z,96.47
2019-01-28T23:55:20.119Z,99.60
2019-01-28T23:57:56.595Z,101.80
